createdAt,value
2017-08-16T00:01:17.733Z,12.80
2017-08-16T00:03:43.765Z,12.37
2017-08-16T00:06:09.805Z,12.20
2017-08-16T00:08:35.825Z,13.23
2017-08-16T00:11:02.616Z,12.73
2017-08-16T00:13:28.628Z,11.50
2017-08-16T00:15:54.668Z,11.83
2017-08-16T00:18:20.685Z,12.50
2017-08-16T00:20:47.461Z,11.10
2017-08-16T00:23:13.480Z,10.67
2017-08-16T00:25:39.498Z,12.37
2017-08-16T00:28:05.518Z,11.83
2017-08-16T00:30:31.544Z,10.73
2017-08-16T00:32:58.316Z,9.60
2017-08-16T00:35:24.350Z,10.00
2017-08-16T00:37:50.359Z,9.47
2017-08-16T00:40:16.377Z,12.30
2017-08-16T00:42:42.401Z,11.70
2017-08-16T00:45:08.420Z,10.73
2017-08-16T00:47:34.449Z,12.50
2017-08-16T00:50:00.468Z,11.90
2017-08-16T00:52:26.513Z,12.77
2017-08-16T00:54:52.557Z,15.50
2017-08-16T00:57:19.297Z,14.13
2017-08-16T00:59:45.317Z,13.70
2017-08-16T01:02:11.329Z,16.00
2017-08-16T01:04:37.358Z,14.77
2017-08-16T01:07:03.408Z,15.70
2017-08-16T01:09:29.481Z,15.80
2017-08-16T01:11:55.848Z,15.30
2017-08-16T01:14:22.613Z,17.57
2017-08-16T01:16:48.625Z,15.60
2017-08-16T01:19:14.648Z,18.70
2017-08-16T01:21:40.664Z,17.67
2017-08-16T01:24:06.677Z,18.03
2017-08-16T01:26:32.705Z,17.83
2017-08-16T01:28:59.465Z,17.70
2017-08-16T01:31:25.485Z,19.30
2017-08-16T01:33:51.492Z,19.60
2017-08-16T01:36:17.529Z,19.30
2017-08-16T01:38:43.537Z,19.40
2017-08-16T01:41:09.561Z,20.53
2017-08-16T01:43:35.584Z,20.90
2017-08-16T01:46:02.357Z,22.57
2017-08-16T01:48:28.368Z,19.30
2017-08-16T01:50:54.398Z,20.20
2017-08-16T01:53:21.176Z,20.90
2017-08-16T01:55:47.181Z,20.70
2017-08-16T01:58:13.185Z,20.70
2017-08-16T02:00:39.205Z,22.63
2017-08-16T02:03:05.225Z,22.73
2017-08-16T02:05:31.237Z,22.13
2017-08-16T02:07:57.257Z,22.17
2017-08-16T02:10:23.280Z,21.00
2017-08-16T02:12:49.304Z,19.73
2017-08-16T02:15:15.306Z,19.50
2017-08-16T02:17:41.339Z,21.60
2017-08-16T02:20:08.089Z,20.73
2017-08-16T02:22:34.120Z,20.50
2017-08-16T02:25:00.136Z,20.90
2017-08-16T02:27:26.192Z,20.83
2017-08-16T02:29:52.997Z,23.20
2017-08-16T02:32:19.019Z,20.37
2017-08-16T02:34:45.035Z,20.60
2017-08-16T02:37:11.050Z,21.73
2017-08-16T02:39:37.116Z,26.67
2017-08-16T02:42:03.126Z,22.20
2017-08-16T02:44:29.241Z,23.40
2017-08-16T02:46:55.262Z,22.67
2017-08-16T02:49:21.287Z,25.33
2017-08-16T02:51:48.041Z,24.97
2017-08-16T02:54:14.211Z,27.00
2017-08-16T02:56:40.976Z,27.67
2017-08-16T02:59:06.989Z,24.63
2017-08-16T03:01:33.008Z,25.00
2017-08-16T03:03:59.013Z,27.20
2017-08-16T03:06:25.032Z,26.63
2017-08-16T03:08:51.037Z,26.10
2017-08-16T03:11:17.061Z,25.70
2017-08-16T03:13:43.077Z,26.50
2017-08-16T03:16:09.089Z,25.73
2017-08-16T03:18:35.097Z,27.97
2017-08-16T03:21:01.121Z,27.70
2017-08-16T03:23:27.140Z,30.07
2017-08-16T03:25:53.910Z,31.97
2017-08-16T03:28:19.944Z,35.97
2017-08-16T03:30:45.969Z,40.93
2017-08-16T03:33:12.729Z,40.47
2017-08-16T03:35:38.726Z,40.97
2017-08-16T03:38:04.736Z,44.40
2017-08-16T03:40:30.749Z,47.10
2017-08-16T03:42:56.761Z,49.97
2017-08-16T03:45:22.774Z,52.17
2017-08-16T03:47:48.792Z,54.87
2017-08-16T03:50:14.796Z,54.30
2017-08-16T03:52:40.816Z,56.00
2017-08-16T03:55:06.825Z,57.50
2017-08-16T03:57:32.845Z,60.77
2017-08-16T03:59:58.889Z,59.77
2017-08-16T04:02:24.919Z,60.20
2017-08-16T04:04:50.945Z,60.50
2017-08-16T04:07:16.974Z,61.43
2017-08-16T04:09:42.992Z,63.40
2017-08-16T04:12:09.005Z,64.70
2017-08-16T04:14:35.036Z,67.73
2017-08-16T04:17:01.073Z,67.70
2017-08-16T04:19:27.094Z,69.80
2017-08-16T04:21:53.108Z,69.07
2017-08-16T04:24:19.136Z,68.47
2017-08-16T04:26:45.148Z,72.00
2017-08-16T04:29:11.172Z,74.33
2017-08-16T04:31:37.184Z,77.37
2017-08-16T04:34:03.218Z,73.60
2017-08-16T04:36:29.237Z,74.57
2017-08-16T04:38:55.253Z,77.50
2017-08-16T04:41:21.289Z,77.17
2017-08-16T04:43:47.296Z,76.30
2017-08-16T04:46:13.316Z,72.60
2017-08-16T04:48:39.332Z,74.87
2017-08-16T04:51:05.365Z,71.40
2017-08-16T04:53:31.388Z,70.90
2017-08-16T04:55:57.437Z,68.03
2017-08-16T04:58:23.444Z,70.43
2017-08-16T05:00:49.468Z,64.57
2017-08-16T05:03:15.485Z,64.67
2017-08-16T05:05:41.513Z,68.30
2017-08-16T05:08:07.529Z,66.30
2017-08-16T05:10:34.284Z,64.53
2017-08-16T05:13:00.342Z,62.47
2017-08-16T05:15:26.362Z,64.20
2017-08-16T05:17:53.125Z,65.37
2017-08-16T05:20:19.142Z,64.33
2017-08-16T05:22:45.175Z,64.67
2017-08-16T05:25:11.192Z,65.23
2017-08-16T05:27:37.217Z,59.27
2017-08-16T05:30:03.978Z,60.70
2017-08-16T05:32:30.028Z,61.90
2017-08-16T05:34:56.049Z,66.00
2017-08-16T05:37:22.081Z,66.47
2017-08-16T05:39:48.861Z,65.70
2017-08-16T05:42:14.897Z,69.23
2017-08-16T05:44:40.916Z,65.07
2017-08-16T05:47:07.694Z,65.80
2017-08-16T05:49:33.761Z,63.10
2017-08-16T05:52:00.528Z,65.03
2017-08-16T05:54:26.573Z,65.80
2017-08-16T05:56:52.588Z,57.33
2017-08-16T05:59:18.598Z,62.67
2017-08-16T06:01:45.362Z,59.00
2017-08-16T06:04:11.406Z,57.47
2017-08-16T06:06:37.445Z,58.40
2017-08-16T06:09:03.466Z,56.90
2017-08-16T06:11:30.216Z,58.67
2017-08-16T06:13:56.228Z,55.10
2017-08-16T06:16:22.265Z,53.60
2017-08-16T06:18:48.292Z,52.13
2017-08-16T06:21:14.318Z,50.30
2017-08-16T06:23:40.349Z,50.10
2017-08-16T06:26:06.364Z,50.80
2017-08-16T06:28:32.371Z,50.50
2017-08-16T06:30:58.411Z,47.93
2017-08-16T06:33:24.434Z,44.53
2017-08-16T06:35:50.467Z,42.90
2017-08-16T06:38:17.237Z,39.80
2017-08-16T06:40:43.262Z,40.90
2017-08-16T06:43:16.317Z,40.40
2017-08-16T06:45:42.334Z,40.83
2017-08-16T06:48:08.360Z,37.73
2017-08-16T06:50:34.379Z,40.47
2017-08-16T06:53:00.409Z,38.87
2017-08-16T06:55:26.445Z,38.10
2017-08-16T06:57:52.492Z,41.50
2017-08-16T07:00:18.509Z,35.93
2017-08-16T07:02:44.569Z,34.70
2017-08-16T07:05:10.591Z,33.57
2017-08-16T07:07:36.604Z,33.70
2017-08-16T07:10:02.637Z,36.73
2017-08-16T07:12:28.661Z,30.47
2017-08-16T07:14:54.698Z,27.80
2017-08-16T07:17:20.709Z,29.60
2017-08-16T07:19:46.733Z,28.90
2017-08-16T07:22:12.758Z,29.60
2017-08-16T07:24:38.795Z,29.60
2017-08-16T07:27:04.817Z,28.97
2017-08-16T07:29:30.858Z,26.00
2017-08-16T07:31:56.881Z,25.30
2017-08-16T07:34:22.903Z,26.47
2017-08-16T07:36:48.916Z,22.97
2017-08-16T07:39:14.917Z,20.70
2017-08-16T07:41:40.940Z,18.10
2017-08-16T07:44:06.960Z,19.90
2017-08-16T07:46:32.990Z,15.70
2017-08-16T07:48:59.011Z,14.27
2017-08-16T07:51:25.033Z,15.40
2017-08-16T07:53:51.106Z,14.53
2017-08-16T07:56:17.156Z,13.90
2017-08-16T07:58:43.165Z,14.93
2017-08-16T08:01:09.184Z,13.07
2017-08-16T08:03:35.244Z,14.53
2017-08-16T08:06:02.008Z,13.77
2017-08-16T08:08:28.024Z,12.83
2017-08-16T08:10:54.041Z,13.20
2017-08-16T08:13:20.065Z,12.57
2017-08-16T08:15:46.081Z,12.77
2017-08-16T08:18:12.129Z,12.30
2017-08-16T08:20:38.869Z,12.80
2017-08-16T08:23:04.884Z,10.77
2017-08-16T08:25:30.896Z,11.80
2017-08-16T08:27:56.937Z,12.67
2017-08-16T08:30:22.944Z,12.20
2017-08-16T08:32:49.003Z,10.40
2017-08-16T08:35:15.026Z,11.60
2017-08-16T08:37:41.050Z,10.47
2017-08-16T08:40:07.076Z,10.60
2017-08-16T08:42:33.096Z,9.47
2017-08-16T08:44:59.130Z,9.40
2017-08-16T08:47:25.174Z,10.23
2017-08-16T08:49:51.226Z,10.30
2017-08-16T08:52:17.249Z,11.20
2017-08-16T08:54:43.281Z,11.27
2017-08-16T08:57:09.304Z,10.70
2017-08-16T08:59:35.336Z,8.57
2017-08-16T09:02:01.364Z,9.80
2017-08-16T09:04:27.410Z,9.33
2017-08-16T09:06:53.431Z,8.93
2017-08-16T09:09:19.440Z,10.30
2017-08-16T09:11:45.461Z,10.60
2017-08-16T09:14:11.470Z,11.37
2017-08-16T09:16:37.507Z,9.53
2017-08-16T09:19:03.536Z,10.90
2017-08-16T09:21:29.573Z,9.27
2017-08-16T09:23:55.594Z,9.73
2017-08-16T09:26:21.615Z,9.33
2017-08-16T09:28:47.625Z,9.37
2017-08-16T09:31:13.647Z,8.67
2017-08-16T09:33:54.628Z,7.80
2017-08-16T09:36:20.663Z,6.80
2017-08-16T09:38:46.664Z,7.03
2017-08-16T09:41:13.432Z,6.60
2017-08-16T09:43:39.489Z,6.20
2017-08-16T09:46:05.504Z,6.47
2017-08-16T09:48:32.281Z,5.93
2017-08-16T09:50:58.304Z,5.70
2017-08-16T09:53:24.339Z,6.00
2017-08-16T09:55:50.345Z,4.47
2017-08-16T09:58:16.377Z,4.80
2017-08-16T10:00:43.164Z,3.63
2017-08-16T10:03:09.197Z,3.43
2017-08-16T10:05:35.221Z,3.90
2017-08-16T10:08:01.237Z,3.50
2017-08-16T10:10:27.269Z,3.57
2017-08-16T10:12:53.313Z,3.60
2017-08-16T10:15:19.344Z,2.60
2017-08-16T10:17:46.109Z,2.83
2017-08-16T10:20:12.176Z,4.70
2017-08-16T10:22:38.992Z,3.13
2017-08-16T10:25:05.028Z,3.40
2017-08-16T10:27:31.042Z,3.07
2017-08-16T10:29:57.065Z,4.50
2017-08-16T10:32:23.097Z,3.90
2017-08-16T10:34:49.113Z,4.13
2017-08-16T10:37:30.101Z,3.40
2017-08-16T10:39:56.109Z,3.27
2017-08-16T10:42:22.872Z,3.00
2017-08-16T10:44:48.901Z,3.93
2017-08-16T10:47:14.937Z,4.20
2017-08-16T10:49:41.711Z,4.40
2017-08-16T10:52:07.756Z,3.77
2017-08-16T10:54:33.793Z,3.40
2017-08-16T10:56:59.804Z,2.83
2017-08-16T10:59:26.596Z,3.70
2017-08-16T11:01:52.600Z,2.70
2017-08-16T11:04:18.625Z,2.23
2017-08-16T11:06:44.637Z,2.17
2017-08-16T11:09:10.666Z,2.47
2017-08-16T11:11:37.441Z,1.70
2017-08-16T11:14:03.464Z,2.07
2017-08-16T11:16:29.477Z,1.93
2017-08-16T11:18:55.508Z,2.50
2017-08-16T11:21:21.520Z,1.73
2017-08-16T11:23:48.301Z,1.70
2017-08-16T11:26:14.337Z,1.80
2017-08-16T11:28:40.345Z,1.70
2017-08-16T11:31:06.372Z,1.97
2017-08-16T11:33:32.388Z,2.10
2017-08-16T11:35:58.412Z,2.20
2017-08-16T11:38:24.425Z,2.30
2017-08-16T11:40:50.436Z,2.73
2017-08-16T11:43:16.449Z,2.20
2017-08-16T11:45:42.480Z,2.20
2017-08-16T11:48:08.500Z,2.57
2017-08-16T11:50:34.532Z,2.27
2017-08-16T11:53:00.553Z,3.10
2017-08-16T11:55:27.322Z,2.13
2017-08-16T11:57:53.347Z,1.77
2017-08-16T12:00:19.367Z,1.43
2017-08-16T12:02:45.385Z,1.60
2017-08-16T12:05:11.408Z,2.03
2017-08-16T12:07:38.166Z,2.40
2017-08-16T12:10:04.200Z,2.33
2017-08-16T12:12:30.217Z,2.27
2017-08-16T12:14:56.245Z,1.87
2017-08-16T12:17:22.279Z,1.97
2017-08-16T12:19:48.293Z,1.93
2017-08-16T12:22:14.334Z,2.10
2017-08-16T12:24:55.345Z,2.10
2017-08-16T12:27:22.108Z,2.00
2017-08-16T12:29:48.117Z,1.77
2017-08-16T12:32:14.129Z,1.90
2017-08-16T12:34:40.332Z,1.43
2017-08-16T12:37:06.361Z,1.53
2017-08-16T12:39:32.360Z,2.20
2017-08-16T12:41:58.380Z,1.80
2017-08-16T12:44:24.401Z,2.70
2017-08-16T12:46:50.445Z,1.57
2017-08-16T12:49:17.202Z,1.70
2017-08-16T12:51:43.231Z,1.53
2017-08-16T12:54:09.289Z,1.90
2017-08-16T12:56:35.331Z,1.77
2017-08-16T12:59:01.355Z,1.40
2017-08-16T13:01:27.365Z,1.80
2017-08-16T13:03:53.372Z,1.70
2017-08-16T13:06:19.404Z,1.40
2017-08-16T13:08:45.441Z,1.47
2017-08-16T13:11:11.471Z,1.50
2017-08-16T13:13:37.495Z,1.20
2017-08-16T13:16:03.501Z,1.27
2017-08-16T13:18:29.525Z,1.97
2017-08-16T13:20:55.545Z,1.50
2017-08-16T13:23:21.572Z,1.30
2017-08-16T13:25:48.350Z,1.60
2017-08-16T13:28:14.369Z,2.10
2017-08-16T13:30:40.389Z,1.57
2017-08-16T13:33:06.416Z,1.10
2017-08-16T13:35:32.424Z,1.13
2017-08-16T13:37:58.444Z,1.50
2017-08-16T13:40:25.229Z,1.27
2017-08-16T13:42:51.360Z,1.40
2017-08-16T13:45:17.408Z,1.00
2017-08-16T13:47:44.169Z,1.10
2017-08-16T13:50:10.201Z,1.30
2017-08-16T13:52:36.249Z,1.37
2017-08-16T13:55:02.364Z,1.20
2017-08-16T13:57:28.374Z,1.40
2017-08-16T13:59:54.392Z,1.23
2017-08-16T14:02:20.408Z,1.30
2017-08-16T14:04:46.425Z,1.70
2017-08-16T14:07:12.477Z,1.47
2017-08-16T14:09:39.719Z,0.90
2017-08-16T14:12:05.757Z,1.00
2017-08-16T14:14:31.808Z,1.10
2017-08-16T14:16:57.829Z,0.90
2017-08-16T14:19:23.848Z,1.60
2017-08-16T14:21:49.892Z,1.60
2017-08-16T14:24:15.914Z,1.20
2017-08-16T14:26:41.928Z,1.30
2017-08-16T14:29:07.960Z,1.10
2017-08-16T14:31:34.035Z,1.17
2017-08-16T14:34:00.062Z,1.13
2017-08-16T14:36:27.218Z,1.20
2017-08-16T14:38:53.324Z,1.77
2017-08-16T14:41:19.333Z,1.60
2017-08-16T14:43:45.613Z,1.33
2017-08-16T14:46:11.622Z,1.37
2017-08-16T14:48:37.650Z,1.20
2017-08-16T14:51:03.716Z,1.20
2017-08-16T14:53:30.489Z,1.50
2017-08-16T14:55:56.515Z,1.50
2017-08-16T14:58:22.532Z,1.30
2017-08-16T15:00:48.581Z,1.30
2017-08-16T15:03:14.602Z,1.40
2017-08-16T15:05:40.650Z,1.20
2017-08-16T15:08:06.668Z,1.10
2017-08-16T15:10:32.701Z,1.10
2017-08-16T15:12:58.723Z,1.20
2017-08-16T15:15:24.744Z,1.20
2017-08-16T15:17:50.760Z,1.20
2017-08-16T15:20:16.793Z,1.30
2017-08-16T15:22:42.836Z,0.97
2017-08-16T15:25:08.882Z,1.13
2017-08-16T15:27:34.896Z,1.20
2017-08-16T15:30:00.917Z,1.73
2017-08-16T15:32:26.928Z,1.20
2017-08-16T15:34:53.510Z,1.23
2017-08-16T15:37:19.613Z,1.63
2017-08-16T15:39:46.460Z,1.40
2017-08-16T15:42:12.480Z,1.60
2017-08-16T15:44:38.524Z,1.70
2017-08-16T15:47:19.501Z,1.10
2017-08-16T15:49:46.264Z,1.90
2017-08-16T15:52:12.273Z,1.40
2017-08-16T15:54:38.308Z,1.30
2017-08-16T15:57:04.320Z,1.53
2017-08-16T15:59:30.336Z,1.77
2017-08-16T16:01:56.340Z,1.20
2017-08-16T16:04:22.364Z,1.30
2017-08-16T16:06:48.384Z,0.90
2017-08-16T16:09:15.149Z,2.00
2017-08-16T16:11:56.168Z,1.57
2017-08-16T16:14:22.944Z,1.73
2017-08-16T16:16:48.977Z,1.60
2017-08-16T16:19:15.008Z,1.67
2017-08-16T16:21:41.085Z,1.30
2017-08-16T16:24:07.132Z,1.70
2017-08-16T16:26:33.165Z,1.80
2017-08-16T16:28:59.188Z,1.23
2017-08-16T16:31:25.257Z,1.70
2017-08-16T16:33:52.014Z,2.27
2017-08-16T16:36:18.025Z,1.73
2017-08-16T16:38:44.062Z,1.60
2017-08-16T16:41:10.073Z,2.50
2017-08-16T16:43:36.143Z,1.80
2017-08-16T16:46:02.189Z,1.80
2017-08-16T16:48:28.258Z,1.93
2017-08-16T16:53:32.840Z,1.63
2017-08-16T16:55:59.608Z,1.93
2017-08-16T16:58:25.652Z,1.60
2017-08-16T17:00:51.676Z,2.50
2017-08-16T17:03:17.704Z,1.60
2017-08-16T17:05:43.724Z,1.60
2017-08-16T17:08:09.744Z,1.53
2017-08-16T17:10:35.785Z,1.67
2017-08-16T17:13:01.812Z,2.20
2017-08-16T17:15:27.846Z,1.87
2017-08-16T17:17:54.598Z,2.07
2017-08-16T17:20:20.639Z,1.97
2017-08-16T17:22:46.677Z,3.00
2017-08-16T17:25:12.707Z,1.90
2017-08-16T17:27:38.781Z,2.47
2017-08-16T17:30:04.813Z,2.10
2017-08-16T17:32:31.604Z,2.10
2017-08-16T17:34:57.612Z,2.10
2017-08-16T17:37:23.640Z,2.33
2017-08-16T17:39:49.657Z,2.90
2017-08-16T17:42:15.687Z,2.80
2017-08-16T17:44:41.725Z,3.10
2017-08-16T17:47:07.751Z,2.83
2017-08-16T17:49:40.633Z,2.93
2017-08-16T17:52:07.405Z,3.20
2017-08-16T17:54:33.445Z,2.70
2017-08-16T17:56:59.467Z,2.10
2017-08-16T17:59:25.501Z,2.60
2017-08-16T18:01:51.509Z,2.67
2017-08-16T18:04:17.541Z,2.93
2017-08-16T18:06:43.557Z,3.03
2017-08-16T18:09:09.613Z,2.80
2017-08-16T18:11:36.794Z,2.70
2017-08-16T18:14:03.047Z,2.90
2017-08-16T18:16:29.080Z,2.77
2017-08-16T18:18:55.093Z,2.57
2017-08-16T18:21:21.113Z,2.90
2017-08-16T18:23:47.872Z,2.20
2017-08-16T18:26:13.880Z,2.70
2017-08-16T18:28:39.920Z,3.03
2017-08-16T18:31:05.928Z,3.37
2017-08-16T18:33:31.952Z,2.67
2017-08-16T18:35:57.977Z,2.80
2017-08-16T18:38:24.000Z,2.77
2017-08-16T18:40:50.760Z,2.70
2017-08-16T18:43:16.785Z,3.07
2017-08-16T18:45:42.808Z,2.80
2017-08-16T18:48:08.950Z,2.60
2017-08-16T18:50:34.978Z,3.67
2017-08-16T18:53:01.000Z,2.70
2017-08-16T18:55:27.047Z,3.00
2017-08-16T18:57:53.060Z,3.17
2017-08-16T19:00:19.077Z,2.93
2017-08-16T19:02:46.586Z,3.23
2017-08-16T19:05:12.737Z,3.43
2017-08-16T19:07:38.751Z,3.27
2017-08-16T19:10:04.765Z,4.10
2017-08-16T19:12:30.792Z,3.00
2017-08-16T19:14:56.825Z,3.50
2017-08-16T19:17:22.862Z,3.40
2017-08-16T19:19:48.901Z,4.10
2017-08-16T19:22:14.923Z,4.03
2017-08-16T19:24:40.960Z,4.93
2017-08-16T19:27:06.985Z,4.23
2017-08-16T19:29:32.997Z,4.30
2017-08-16T19:31:59.138Z,3.87
2017-08-16T19:34:25.891Z,4.40
2017-08-16T19:36:51.964Z,3.67
2017-08-16T19:39:17.982Z,4.13
2017-08-16T19:41:44.146Z,4.10
2017-08-16T19:44:10.156Z,3.80
2017-08-16T19:46:36.193Z,4.10
2017-08-16T19:49:02.242Z,3.80
2017-08-16T19:51:28.256Z,4.40
2017-08-16T19:53:54.277Z,4.40
2017-08-16T19:56:20.288Z,4.93
2017-08-16T19:58:46.309Z,4.70
2017-08-16T20:01:12.327Z,5.50
2017-08-16T20:03:38.340Z,4.60
2017-08-16T20:06:04.353Z,5.50
2017-08-16T20:08:30.377Z,4.77
2017-08-16T20:10:56.383Z,5.70
2017-08-16T20:13:22.412Z,6.40
2017-08-16T20:15:48.452Z,6.73
2017-08-16T20:18:14.473Z,6.83
2017-08-16T20:20:40.485Z,6.20
2017-08-16T20:23:06.644Z,7.90
2017-08-16T20:25:32.668Z,8.00
2017-08-16T20:27:58.680Z,7.47
2017-08-16T20:30:31.760Z,8.00
2017-08-16T20:32:57.792Z,8.00
2017-08-16T20:35:23.804Z,7.07
2017-08-16T20:37:49.832Z,7.30
2017-08-16T20:40:15.844Z,7.17
2017-08-16T20:42:42.616Z,7.10
2017-08-16T20:45:08.661Z,6.63
2017-08-16T20:47:34.722Z,7.57
2017-08-16T20:50:00.744Z,7.27
2017-08-16T20:52:26.749Z,8.20
2017-08-16T20:54:52.773Z,7.50
2017-08-16T20:57:18.798Z,8.10
2017-08-16T20:59:51.750Z,8.27
2017-08-16T21:02:17.774Z,8.50
2017-08-16T21:04:43.809Z,9.40
2017-08-16T21:07:09.821Z,8.30
2017-08-16T21:09:35.833Z,8.50
2017-08-16T21:12:01.853Z,9.50
2017-08-16T21:14:28.610Z,8.37
2017-08-16T21:16:54.616Z,8.27
2017-08-16T21:19:20.649Z,8.50
2017-08-16T21:21:46.681Z,9.43
2017-08-16T21:24:13.486Z,9.53
2017-08-16T21:26:39.508Z,8.57
2017-08-16T21:29:05.524Z,10.00
2017-08-16T21:31:31.545Z,8.97
2017-08-16T21:33:58.293Z,9.20
2017-08-16T21:36:24.318Z,9.10
2017-08-16T21:38:50.333Z,9.67
2017-08-16T21:41:16.365Z,10.50
2017-08-16T21:43:42.376Z,10.43
2017-08-16T21:46:08.404Z,9.90
2017-08-16T21:48:34.452Z,10.53
2017-08-16T21:51:00.497Z,9.10
2017-08-16T21:53:26.504Z,9.40
2017-08-16T21:55:52.529Z,9.40
2017-08-16T21:58:18.533Z,10.83
2017-08-16T22:00:44.584Z,11.00
2017-08-16T22:03:10.600Z,9.97
2017-08-16T22:05:36.646Z,10.80
2017-08-16T22:08:02.676Z,10.40
2017-08-16T22:10:28.697Z,10.40
2017-08-16T22:12:55.457Z,10.03
2017-08-16T22:15:21.482Z,10.30
2017-08-16T22:17:47.499Z,10.13
2017-08-16T22:20:13.509Z,9.03
2017-08-16T22:22:39.544Z,10.03
2017-08-16T22:25:06.308Z,9.47
2017-08-16T22:27:32.337Z,9.50
2017-08-16T22:29:58.349Z,10.30
2017-08-16T22:32:24.368Z,10.30
2017-08-16T22:34:50.389Z,10.80
2017-08-16T22:37:16.416Z,11.30
2017-08-16T22:39:42.421Z,11.90
2017-08-16T22:42:08.442Z,11.50
2017-08-16T22:44:34.466Z,11.10
2017-08-16T22:47:00.493Z,10.90
2017-08-16T22:49:26.509Z,11.60
2017-08-16T22:51:52.528Z,10.93
2017-08-16T22:54:18.542Z,10.83
2017-08-16T22:56:44.569Z,10.97
2017-08-16T22:59:10.676Z,10.43
2017-08-16T23:01:36.684Z,10.87
2017-08-16T23:04:02.713Z,10.03
2017-08-16T23:06:29.468Z,11.53
2017-08-16T23:08:55.489Z,11.13
2017-08-16T23:11:21.517Z,10.33
2017-08-16T23:13:47.574Z,9.93
2017-08-16T23:16:13.613Z,10.20
2017-08-16T23:18:39.629Z,10.50
2017-08-16T23:21:05.637Z,9.50
2017-08-16T23:23:31.656Z,10.50
2017-08-16T23:25:57.657Z,9.97
2017-08-16T23:28:23.697Z,9.93
2017-08-16T23:30:49.709Z,9.63
2017-08-16T23:33:16.480Z,10.30
2017-08-16T23:35:42.493Z,9.10
2017-08-16T23:38:08.514Z,10.13
2017-08-16T23:40:34.544Z,11.07
2017-08-16T23:43:00.568Z,9.63
2017-08-16T23:45:26.593Z,9.57
2017-08-16T23:47:53.366Z,9.73
2017-08-16T23:50:19.412Z,9.87
2017-08-16T23:52:45.424Z,9.37
2017-08-16T23:55:11.457Z,11.03
2017-08-16T23:57:37.481Z,9.30
